Time;durP1;ratioP1;P1;durP2;ratioP2;P2;SDS_P1;SDS_P2;PMS_P1;PMS_P2;Temp;Humidity;BMP_temperature;BMP_pressure;BME280_temperature;BME280_humidity;BME280_pressure;Samples;Min_cycle;Max_cycle;Signal;HPM_P1;HPM_P2
2021/09/01 00:00:15;;;;;;;0.43;0.35;;;16.80;81.50;;;;;;5138041;27;20023;-78
2021/09/01 00:02:40;;;;;;;0.80;0.50;;;16.80;81.50;;;;;;5137958;27;20570;-77
2021/09/01 00:05:08;;;;;;;0.93;0.63;;;16.80;81.50;;;;;;5137428;27;20030;-77
2021/09/01 00:07:33;;;;;;;1.05;0.63;;;16.80;81.40;;;;;;5137897;27;20012;-77
2021/09/01 00:09:59;;;;;;;0.52;0.50;;;16.80;81.50;;;;;;5137741;27;20027;-78
2021/09/01 00:12:24;;;;;;;0.88;0.63;;;16.80;81.40;;;;;;5137705;27;20443;-78
2021/09/01 00:14:50;;;;;;;0.60;0.60;;;16.80;81.40;;;;;;5137853;27;20030;-77
2021/09/01 00:17:16;;;;;;;1.23;0.43;;;16.90;81.40;;;;;;5119438;27;20027;-79
2021/09/01 00:19:41;;;;;;;1.65;0.60;;;16.90;81.20;;;;;;5136842;27;20047;-77
2021/09/01 00:22:07;;;;;;;0.55;0.40;;;16.90;81.20;;;;;;5137610;27;20460;-79
2021/09/01 00:24:32;;;;;;;0.65;0.40;;;16.90;81.10;;;;;;5119138;27;20023;-77
2021/09/01 00:26:58;;;;;;;0.50;0.35;;;17.00;81.10;;;;;;5137679;27;20033;-78
2021/09/01 00:29:23;;;;;;;1.00;0.57;;;16.90;81.20;;;;;;5137512;27;20027;-78
2021/09/01 00:31:49;;;;;;;0.35;0.35;;;16.90;81.20;;;;;;5137329;27;20019;-79
2021/09/01 00:34:15;;;;;;;0.93;0.90;;;16.90;81.70;;;;;;5118617;27;20064;-77
2021/09/01 00:36:41;;;;;;;1.45;0.93;;;16.90;81.20;;;;;;5137397;27;20020;-78
2021/09/01 00:39:06;;;;;;;0.40;0.40;;;16.90;81.10;;;;;;5137143;27;20076;-78
2021/09/01 00:41:32;;;;;;;0.60;0.60;;;16.90;81.10;;;;;;5137406;27;20038;-79
2021/09/01 00:44:17;;;;;;;2.22;0.90;;;16.90;81.10;;;;;;5137310;27;20030;-77
2021/09/01 00:46:43;;;;;;;0.50;0.50;;;16.90;81.00;;;;;;5137284;27;20035;-77
2021/09/01 00:49:10;;;;;;;1.88;0.80;;;16.80;81.30;;;;;;5135452;27;20095;-78
2021/09/01 00:51:35;;;;;;;0.65;0.40;;;16.80;81.20;;;;;;5137056;27;20035;-80
2021/09/01 00:54:02;;;;;;;0.60;0.60;;;16.80;81.20;;;;;;5137130;27;20019;-78
2021/09/01 00:56:27;;;;;;;0.70;0.60;;;16.80;81.10;;;;;;5137073;27;20027;-78
2021/09/01 00:58:53;;;;;;;1.02;0.77;;;16.80;81.10;;;;;;5136707;27;20011;-78
2021/09/01 01:01:20;;;;;;;0.50;0.50;;;16.90;81.00;;;;;;5136864;27;20499;-76
2021/09/01 01:03:49;;;;;;;0.80;0.80;;;16.80;80.90;;;;;;5136389;27;20019;-79
2021/09/01 01:06:24;;;;;;;0.63;0.43;;;16.80;81.10;;;;;;5136977;27;20526;-78
2021/09/01 01:08:51;;;;;;;0.40;0.40;;;16.80;81.10;;;;;;5136791;27;20085;-79
2021/09/01 01:11:17;;;;;;;0.85;0.47;;;16.80;81.20;;;;;;5136595;27;20043;-79
2021/09/01 01:13:47;;;;;;;2.15;0.70;;;16.80;81.10;;;;;;5136614;27;20551;-79
2021/09/01 01:16:14;;;;;;;0.90;0.70;;;16.80;81.10;;;;;;5136237;27;20908;-78
2021/09/01 01:18:41;;;;;;;0.70;0.40;;;16.90;80.90;;;;;;5136426;27;20050;-79
2021/09/01 01:21:07;;;;;;;0.80;0.45;;;16.90;80.80;;;;;;5152389;27;20031;-78
2021/09/01 01:23:32;;;;;;;0.98;0.82;;;17.00;80.70;;;;;;5136541;27;20019;-78
2021/09/01 01:25:58;;;;;;;0.57;0.45;;;16.90;80.70;;;;;;5136389;27;20031;-79
2021/09/01 01:28:23;;;;;;;0.57;0.57;;;16.80;80.80;;;;;;5136346;27;20475;-79
2021/09/01 01:30:49;;;;;;;0.68;0.68;;;16.80;80.90;;;;;;5136030;27;20043;-79
2021/09/01 01:33:14;;;;;;;0.50;0.50;;;16.80;80.90;;;;;;5136231;27;20452;-77
2021/09/01 01:35:43;;;;;;;0.70;0.60;;;16.80;80.90;;;;;;5136228;27;20050;-79
2021/09/01 01:38:16;;;;;;;0.50;0.50;;;16.80;80.90;;;;;;5136106;27;20027;-78
2021/09/01 01:40:42;;;;;;;0.57;0.57;;;16.80;81.00;;;;;;5136173;27;20057;-78
2021/09/01 01:43:08;;;;;;;0.75;0.70;;;16.70;81.10;;;;;;5136059;27;20036;-77
2021/09/01 01:45:36;;;;;;;0.40;0.40;;;16.70;81.10;;;;;;5117040;27;20352;-78
2021/09/01 01:48:03;;;;;;;0.38;0.38;;;16.80;81.10;;;;;;5136284;27;20142;-79
2021/09/01 01:50:30;;;;;;;0.75;0.43;;;16.80;81.10;;;;;;5117628;27;20459;-78
2021/09/01 01:52:56;;;;;;;0.43;0.43;;;16.80;81.10;;;;;;5135901;27;20026;-78
2021/09/01 01:55:22;;;;;;;0.73;0.73;;;16.80;80.90;;;;;;5117336;27;20011;-78
2021/09/01 01:57:47;;;;;;;0.80;0.70;;;16.90;80.80;;;;;;5135843;27;20487;-78
2021/09/01 02:00:14;;;;;;;0.30;0.30;;;17.00;80.70;;;;;;5134958;27;20034;-78
2021/09/01 02:02:41;;;;;;;0.40;0.40;;;17.00;80.50;;;;;;5135769;27;20054;-81
2021/09/01 02:05:07;;;;;;;0.35;0.30;;;17.00;80.40;;;;;;5135693;27;20024;-80
2021/09/01 02:07:33;;;;;;;0.63;0.47;;;17.00;80.40;;;;;;5135579;27;20026;-80
2021/09/01 02:09:59;;;;;;;0.47;0.47;;;17.10;80.40;;;;;;5135505;27;20022;-79
2021/09/01 02:12:31;;;;;;;0.38;0.38;;;17.10;80.30;;;;;;5135410;27;20098;-79
2021/09/01 02:15:00;;;;;;;0.47;0.47;;;17.10;80.30;;;;;;5135054;27;20020;-79
2021/09/01 02:17:26;;;;;;;0.20;0.20;;;17.10;80.20;;;;;;5135479;27;20019;-79
2021/09/01 02:19:52;;;;;;;0.50;0.47;;;17.10;80.30;;;;;;5135189;27;20049;-80
2021/09/01 02:22:18;;;;;;;0.75;0.60;;;17.10;80.30;;;;;;5116875;27;20045;-80
2021/09/01 02:24:44;;;;;;;0.60;0.55;;;17.10;80.40;;;;;;5135124;27;20038;-79
2021/09/01 02:27:09;;;;;;;0.88;0.63;;;17.00;80.60;;;;;;5135246;27;20067;-79
2021/09/01 02:29:35;;;;;;;0.73;0.73;;;16.90;80.70;;;;;;5134841;27;20353;-80
2021/09/01 02:32:00;;;;;;;1.13;0.55;;;16.80;81.00;;;;;;5135159;27;20102;-80
2021/09/01 02:34:26;;;;;;;1.02;0.50;;;16.80;81.10;;;;;;5134943;27;20482;-79
2021/09/01 02:36:51;;;;;;;2.22;1.15;;;16.80;81.10;;;;;;5134998;27;20023;-81
2021/09/01 02:39:17;;;;;;;0.80;0.50;;;16.80;81.10;;;;;;5134803;27;20031;-79
2021/09/01 02:41:43;;;;;;;0.50;0.50;;;16.80;81.00;;;;;;5135023;27;20463;-80
2021/09/01 02:44:08;;;;;;;0.70;0.70;;;16.80;81.00;;;;;;5134451;27;20023;-79
2021/09/01 02:46:37;;;;;;;0.40;0.40;;;16.90;80.90;;;;;;5134862;27;20084;-79
2021/09/01 02:49:03;;;;;;;0.75;0.52;;;16.90;80.80;;;;;;5134767;27;20094;-80
2021/09/01 02:51:29;;;;;;;0.73;0.50;;;16.90;80.80;;;;;;5134822;27;20102;-78
2021/09/01 02:53:54;;;;;;;1.38;0.47;;;16.90;80.80;;;;;;5134640;27;20099;-80
2021/09/01 02:56:20;;;;;;;0.70;0.68;;;16.80;80.90;;;;;;5134773;27;20139;-79
2021/09/01 02:58:45;;;;;;;0.50;0.50;;;16.80;81.00;;;;;;5134124;27;20068;-79
2021/09/01 03:01:11;;;;;;;0.70;0.70;;;16.70;81.10;;;;;;5134622;27;20487;-79
2021/09/01 03:03:36;;;;;;;1.65;0.55;;;16.70;81.00;;;;;;5134392;27;20098;-80
2021/09/01 03:06:02;;;;;;;0.95;0.57;;;16.80;81.10;;;;;;5134571;27;20066;-80
2021/09/01 03:08:27;;;;;;;1.23;0.80;;;16.80;81.00;;;;;;5134514;27;20015;-80
2021/09/01 03:10:53;;;;;;;1.45;0.80;;;16.80;81.00;;;;;;5134381;27;20027;-79
2021/09/01 03:13:18;;;;;;;0.88;0.68;;;16.70;81.00;;;;;;5133466;27;20024;-79
2021/09/01 03:15:44;;;;;;;0.63;0.63;;;16.70;81.00;;;;;;5115925;27;20103;-80
2021/09/01 03:18:09;;;;;;;1.85;0.88;;;16.70;81.00;;;;;;5134475;27;20015;-81
2021/09/01 03:20:35;;;;;;;0.60;0.60;;;16.70;81.10;;;;;;5134194;27;20028;-80
2021/09/01 03:23:00;;;;;;;0.93;0.80;;;16.70;81.20;;;;;;5134249;27;20353;-80
2021/09/01 03:25:26;;;;;;;1.38;1.05;;;16.70;81.00;;;;;;5134333;27;20054;-80
2021/09/01 03:27:52;;;;;;;1.10;0.68;;;16.60;81.00;;;;;;5133870;27;20019;-79
2021/09/01 03:30:17;;;;;;;1.40;0.70;;;16.70;81.20;;;;;;5134292;28;20023;-80
2021/09/01 03:32:43;;;;;;;1.08;0.47;;;16.70;81.00;;;;;;5134312;28;20491;-80
2021/09/01 03:35:08;;;;;;;0.68;0.50;;;16.70;80.90;;;;;;5134216;28;20091;-80
2021/09/01 03:37:34;;;;;;;1.05;0.65;;;16.70;80.90;;;;;;5115801;28;20019;-80
2021/09/01 03:40:00;;;;;;;0.40;0.40;;;16.70;81.10;;;;;;5134041;28;20027;-79
2021/09/01 03:42:26;;;;;;;1.20;0.73;;;16.70;80.80;;;;;;5133561;28;20026;-80
2021/09/01 03:44:52;;;;;;;0.65;0.50;;;16.70;80.80;;;;;;5134103;28;20035;-80
2021/09/01 03:47:17;;;;;;;0.60;0.38;;;16.70;80.90;;;;;;5134062;28;20098;-79
2021/09/01 03:49:43;;;;;;;0.60;0.60;;;16.70;80.90;;;;;;5134123;28;20019;-79
2021/09/01 03:52:08;;;;;;;2.28;0.80;;;16.60;80.90;;;;;;5134063;28;20054;-80
2021/09/01 03:54:34;;;;;;;0.70;0.57;;;16.60;81.00;;;;;;5133989;28;20431;-79
2021/09/01 03:56:59;;;;;;;0.60;0.52;;;16.60;81.70;;;;;;5133440;28;20022;-79
2021/09/01 03:59:25;;;;;;;0.40;0.32;;;16.60;81.10;;;;;;5134169;28;20039;-79
2021/09/01 04:01:50;;;;;;;0.75;0.50;;;16.60;81.00;;;;;;5133963;28;20102;-80
2021/09/01 04:04:16;;;;;;;1.17;0.93;;;16.60;81.00;;;;;;5133987;28;20050;-79
2021/09/01 04:06:42;;;;;;;1.10;0.70;;;16.60;80.90;;;;;;5133891;28;20156;-79
2021/09/01 04:09:08;;;;;;;1.50;0.88;;;16.50;80.90;;;;;;5133887;28;20051;-81
2021/09/01 04:11:33;;;;;;;0.95;0.65;;;16.50;81.00;;;;;;5133390;28;20027;-80
2021/09/01 04:13:59;;;;;;;0.65;0.65;;;16.50;81.10;;;;;;5133872;28;20513;-79
2021/09/01 04:16:24;;;;;;;0.40;0.40;;;16.50;81.20;;;;;;5133870;28;20030;-81
2021/09/01 04:18:50;;;;;;;0.80;0.80;;;16.40;81.10;;;;;;5115140;28;20130;-78
2021/09/01 04:21:16;;;;;;;1.13;0.60;;;16.50;81.00;;;;;;5115256;28;20027;-80
2021/09/01 04:23:41;;;;;;;0.63;0.63;;;16.50;81.00;;;;;;5135220;27;20020;-81
2021/09/01 04:26:07;;;;;;;0.85;0.73;;;16.50;81.00;;;;;;5118687;27;20015;-80
2021/09/01 04:28:32;;;;;;;0.80;0.80;;;16.50;81.00;;;;;;5137654;27;20395;-80
2021/09/01 04:30:58;;;;;;;0.50;0.50;;;16.50;81.00;;;;;;5119093;27;20029;-79
2021/09/01 04:33:23;;;;;;;0.57;0.57;;;16.50;81.00;;;;;;5137616;27;20011;-79
2021/09/01 04:35:49;;;;;;;0.75;0.75;;;16.60;80.80;;;;;;5137349;27;20487;-80
2021/09/01 04:38:14;;;;;;;0.38;0.28;;;16.60;80.60;;;;;;5137246;27;20023;-79
2021/09/01 04:40:40;;;;;;;0.70;0.40;;;16.60;80.60;;;;;;5136758;27;20042;-80
2021/09/01 04:43:06;;;;;;;0.30;0.30;;;16.60;80.60;;;;;;5118886;27;20082;-80
2021/09/01 04:45:32;;;;;;;0.63;0.50;;;16.60;80.50;;;;;;5137283;27;20099;-79
2021/09/01 04:47:58;;;;;;;0.77;0.38;;;16.60;80.40;;;;;;5137116;27;20029;-79
2021/09/01 04:50:23;;;;;;;0.88;0.70;;;16.60;80.40;;;;;;5137130;27;20039;-79
2021/09/01 04:52:49;;;;;;;0.45;0.40;;;16.60;80.50;;;;;;5137099;27;20036;-80
2021/09/01 04:55:17;;;;;;;0.50;0.50;;;16.60;80.50;;;;;;5136648;27;20027;-79
2021/09/01 04:57:42;;;;;;;0.70;0.50;;;16.60;80.40;;;;;;5136970;27;20011;-79
2021/09/01 05:00:08;;;;;;;1.17;0.50;;;16.60;80.40;;;;;;5118521;27;20084;-79
2021/09/01 05:02:34;;;;;;;0.50;0.50;;;16.60;80.30;;;;;;5136798;27;20030;-79
2021/09/01 05:04:59;;;;;;;0.45;0.40;;;16.70;80.30;;;;;;5136933;27;20110;-79
2021/09/01 05:07:25;;;;;;;0.35;0.32;;;16.70;80.20;;;;;;5136867;27;20062;-80
2021/09/01 05:09:50;;;;;;;0.40;0.40;;;16.60;80.30;;;;;;5136186;27;20110;-79
2021/09/01 05:12:16;;;;;;;0.30;0.30;;;16.60;80.40;;;;;;5136584;27;20023;-80
2021/09/01 05:14:42;;;;;;;0.50;0.50;;;16.60;80.40;;;;;;5136734;27;20046;-79
2021/09/01 05:17:08;;;;;;;0.88;0.70;;;16.70;80.40;;;;;;5118290;27;20060;-81
2021/09/01 05:19:33;;;;;;;1.95;0.40;;;16.70;80.30;;;;;;5136352;27;20051;-77
2021/09/01 05:22:04;;;;;;;0.28;0.28;;;16.70;80.30;;;;;;5136798;27;20075;-79
2021/09/01 05:24:38;;;;;;;0.17;0.17;;;16.70;80.30;;;;;;5136116;27;20020;-79
2021/09/01 05:27:17;;;;;;;0.43;0.40;;;16.70;80.20;;;;;;5136570;27;20034;-78
2021/09/01 05:29:44;;;;;;;0.40;0.40;;;16.80;80.20;;;;;;5136586;27;20502;-78
2021/09/01 05:32:18;;;;;;;0.35;0.35;;;16.80;80.20;;;;;;5136269;27;20416;-78
2021/09/01 05:34:44;;;;;;;0.30;0.30;;;16.80;80.10;;;;;;5135614;27;20107;-78
2021/09/01 05:37:12;;;;;;;0.40;0.40;;;16.80;80.10;;;;;;5135831;27;20046;-79
2021/09/01 05:39:41;;;;;;;0.28;0.25;;;16.80;80.10;;;;;;5136152;27;20031;-78
2021/09/01 05:42:07;;;;;;;0.32;0.32;;;16.90;80.10;;;;;;5136049;27;20493;-78
2021/09/01 05:44:34;;;;;;;0.95;0.60;;;16.90;80.00;;;;;;5135959;27;20023;-78
2021/09/01 05:47:00;;;;;;;0.52;0.43;;;16.90;80.00;;;;;;5136059;27;20046;-78
2021/09/01 05:49:26;;;;;;;0.40;0.40;;;16.90;80.00;;;;;;5135996;27;20030;-78
2021/09/01 05:51:53;;;;;;;0.52;0.52;;;16.90;80.10;;;;;;5135488;27;20023;-78
2021/09/01 05:54:18;;;;;;;0.95;0.60;;;16.80;80.10;;;;;;5135824;27;20023;-79
2021/09/01 05:56:47;;;;;;;0.70;0.70;;;16.80;80.10;;;;;;5135662;27;20027;-79
2021/09/01 05:59:16;;;;;;;0.93;0.60;;;16.80;80.30;;;;;;5135642;27;20061;-76
2021/09/01 06:01:50;;;;;;;1.08;0.50;;;16.80;80.30;;;;;;5135702;27;20099;-76
2021/09/01 06:04:17;;;;;;;1.30;0.50;;;16.80;80.30;;;;;;5135766;27;20383;-76
2021/09/01 06:06:49;;;;;;;0.70;0.40;;;16.90;80.30;;;;;;5135208;27;20034;-75
2021/09/01 06:09:15;;;;;;;1.50;0.50;;;16.90;80.10;;;;;;5117107;27;20015;-75
2021/09/01 06:11:43;;;;;;;0.40;0.40;;;16.90;80.10;;;;;;5135632;27;20026;-76
2021/09/01 06:14:08;;;;;;;0.95;0.55;;;16.90;80.20;;;;;;5117268;27;20363;-76
2021/09/01 06:16:36;;;;;;;1.20;0.50;;;16.90;80.20;;;;;;5117090;27;20027;-76
2021/09/01 06:19:01;;;;;;;0.32;0.30;;;16.90;80.20;;;;;;5135320;27;20043;-76
2021/09/01 06:21:27;;;;;;;0.77;0.60;;;16.90;80.10;;;;;;5134956;27;20034;-76
2021/09/01 06:23:54;;;;;;;0.40;0.38;;;17.00;80.10;;;;;;5135452;27;20073;-76
2021/09/01 06:26:20;;;;;;;0.57;0.40;;;17.00;79.90;;;;;;5135213;27;20524;-75
2021/09/01 06:28:45;;;;;;;0.70;0.40;;;17.10;79.90;;;;;;5116720;27;20027;-76
2021/09/01 06:31:11;;;;;;;2.65;1.27;;;17.10;79.80;;;;;;5135227;27;20468;-75
2021/09/01 06:33:37;;;;;;;0.75;0.75;;;17.20;79.80;;;;;;5135136;27;20019;-79
2021/09/01 06:36:02;;;;;;;0.55;0.50;;;17.20;79.70;;;;;;5134616;27;20031;-75
2021/09/01 06:38:28;;;;;;;2.10;0.77;;;17.20;79.80;;;;;;5135031;27;20467;-76
2021/09/01 06:40:53;;;;;;;0.52;0.40;;;17.20;79.80;;;;;;5134728;27;20055;-76
2021/09/01 06:43:19;;;;;;;1.55;0.75;;;17.10;79.80;;;;;;5134820;27;20414;-77
2021/09/01 06:45:46;;;;;;;0.85;0.63;;;17.20;79.80;;;;;;5134957;27;20035;-77
2021/09/01 06:48:12;;;;;;;0.32;0.32;;;17.20;79.80;;;;;;5134059;27;20090;-76
2021/09/01 06:50:37;;;;;;;0.50;0.50;;;17.10;79.80;;;;;;5134425;27;20101;-78
2021/09/01 06:53:03;;;;;;;0.43;0.43;;;17.10;79.80;;;;;;5134693;27;20015;-76
2021/09/01 06:55:28;;;;;;;1.15;0.55;;;17.10;79.80;;;;;;5116180;27;20076;-76
2021/09/01 06:57:54;;;;;;;0.95;0.75;;;17.10;79.90;;;;;;5134921;27;20019;-76
2021/09/01 07:00:20;;;;;;;0.98;0.40;;;17.10;80.00;;;;;;5134609;27;20028;-75
2021/09/01 07:02:45;;;;;;;0.70;0.50;;;17.20;80.00;;;;;;5134627;27;20054;-77
2021/09/01 07:05:14;;;;;;;0.73;0.60;;;17.20;79.90;;;;;;5134017;27;20464;-76
2021/09/01 07:07:43;;;;;;;0.80;0.63;;;17.20;80.50;;;;;;5134559;27;20015;-77
2021/09/01 07:10:10;;;;;;;0.50;0.50;;;17.20;79.80;;;;;;5134411;27;20034;-75
2021/09/01 07:12:35;;;;;;;0.32;0.32;;;17.20;79.90;;;;;;5134541;27;20027;-76
2021/09/01 07:15:02;;;;;;;0.60;0.60;;;17.20;79.70;;;;;;5134587;27;20023;-77
2021/09/01 07:17:28;;;;;;;0.40;0.40;;;17.30;79.80;;;;;;5134375;27;20011;-76
2021/09/01 07:19:53;;;;;;;0.30;0.28;;;17.20;79.80;;;;;;5133764;27;20047;-77
2021/09/01 07:22:19;;;;;;;0.60;0.60;;;17.30;79.80;;;;;;5134427;27;20056;-77
2021/09/01 07:24:44;;;;;;;0.52;0.52;;;17.30;79.80;;;;;;5134221;27;20027;-78
2021/09/01 07:27:10;;;;;;;0.50;0.50;;;17.40;79.50;;;;;;5134183;27;20015;-77
2021/09/01 07:29:35;;;;;;;0.30;0.30;;;17.30;79.60;;;;;;5134308;27;20018;-76
2021/09/01 07:32:01;;;;;;;0.47;0.30;;;17.30;79.70;;;;;;5134182;28;20027;-77
2021/09/01 07:34:26;;;;;;;0.55;0.55;;;17.40;79.70;;;;;;5133848;28;20037;-77
2021/09/01 07:36:52;;;;;;;0.45;0.40;;;17.60;79.60;;;;;;5134160;28;20458;-77
2021/09/01 07:39:17;;;;;;;0.63;0.60;;;17.70;79.20;;;;;;5115594;28;20020;-78
2021/09/01 07:41:43;;;;;;;1.23;0.50;;;17.70;79.00;;;;;;5134116;28;20027;-76
2021/09/01 07:44:08;;;;;;;0.60;0.30;;;17.70;79.00;;;;;;5115778;28;20023;-77
2021/09/01 07:46:34;;;;;;;0.95;0.50;;;17.70;79.20;;;;;;5134100;28;20032;-77
2021/09/01 07:49:01;;;;;;;0.73;0.50;;;17.70;79.30;;;;;;5133518;28;20015;-77
2021/09/01 07:51:28;;;;;;;0.52;0.52;;;17.80;79.20;;;;;;5133996;28;20030;-77
2021/09/01 07:53:53;;;;;;;0.38;0.35;;;17.90;79.20;;;;;;5134016;28;20098;-77
2021/09/01 07:56:19;;;;;;;1.08;0.40;;;17.90;79.10;;;;;;5134089;28;20107;-76
2021/09/01 07:58:45;;;;;;;1.13;0.80;;;17.90;79.00;;;;;;5135751;27;20026;-77
2021/09/01 08:01:10;;;;;;;0.52;0.52;;;18.00;79.10;;;;;;5138023;27;20511;-78
2021/09/01 08:03:36;;;;;;;0.63;0.50;;;18.00;78.90;;;;;;5119107;27;20048;-78
2021/09/01 08:06:04;;;;;;;0.60;0.60;;;18.00;79.00;;;;;;5138024;27;20050;-78
2021/09/01 08:08:30;;;;;;;0.50;0.50;;;18.00;79.00;;;;;;5138021;27;20020;-78
2021/09/01 08:10:55;;;;;;;1.20;0.90;;;18.00;79.00;;;;;;5137950;27;20031;-77
2021/09/01 08:13:21;;;;;;;0.75;0.50;;;18.00;79.00;;;;;;5138091;27;20094;-78
2021/09/01 08:15:46;;;;;;;0.63;0.60;;;18.10;79.00;;;;;;5137636;27;20020;-78
2021/09/01 08:18:12;;;;;;;0.32;0.32;;;18.10;79.00;;;;;;5118619;27;20387;-77
2021/09/01 08:20:37;;;;;;;0.55;0.40;;;18.10;79.00;;;;;;5137609;27;20035;-78
2021/09/01 08:23:03;;;;;;;0.50;0.50;;;18.20;79.10;;;;;;5137717;27;20030;-77
2021/09/01 08:25:28;;;;;;;0.30;0.30;;;18.20;78.90;;;;;;5137630;27;20023;-77
2021/09/01 08:27:54;;;;;;;1.15;0.50;;;18.30;78.80;;;;;;5137681;27;20023;-77
2021/09/01 08:30:19;;;;;;;0.60;0.30;;;18.40;78.60;;;;;;5137624;27;20034;-77
2021/09/01 08:32:45;;;;;;;0.40;0.40;;;18.50;78.40;;;;;;5136983;27;20015;-78
2021/09/01 08:35:11;;;;;;;0.95;0.57;;;18.60;78.20;;;;;;5137278;27;20098;-78
2021/09/01 08:37:37;;;;;;;0.20;0.20;;;18.70;78.10;;;;;;5137356;27;20420;-77
2021/09/01 08:40:06;;;;;;;0.30;0.30;;;18.80;78.00;;;;;;5137198;27;20114;-78
2021/09/01 08:42:32;;;;;;;0.22;0.22;;;18.80;78.10;;;;;;5137428;27;20423;-77
2021/09/01 08:44:58;;;;;;;0.35;0.35;;;18.80;78.20;;;;;;5137439;27;20031;-78
2021/09/01 08:47:24;;;;;;;0.75;0.60;;;18.80;78.00;;;;;;5136639;27;20079;-78
2021/09/01 08:49:49;;;;;;;0.57;0.57;;;18.90;77.90;;;;;;5137331;27;20027;-76
2021/09/01 08:52:15;;;;;;;0.65;0.40;;;18.80;78.00;;;;;;5137005;27;20020;-78
2021/09/01 08:54:41;;;;;;;0.50;0.50;;;18.60;78.20;;;;;;5137099;27;20084;-78
2021/09/01 08:57:06;;;;;;;0.40;0.40;;;18.50;78.40;;;;;;5137007;27;20019;-78
2021/09/01 08:59:32;;;;;;;0.93;0.65;;;18.50;78.50;;;;;;5136987;27;20391;-76
2021/09/01 09:01:58;;;;;;;0.95;0.40;;;18.60;78.50;;;;;;5136358;27;20023;-77
2021/09/01 09:04:27;;;;;;;0.45;0.40;;;18.60;78.30;;;;;;5136876;27;20033;-77
2021/09/01 09:06:55;;;;;;;0.40;0.40;;;18.60;78.80;;;;;;5136823;27;20080;-77
2021/09/01 09:09:23;;;;;;;0.57;0.40;;;18.60;78.40;;;;;;5136482;27;20019;-77
2021/09/01 09:11:49;;;;;;;1.25;0.77;;;18.70;78.40;;;;;;5136443;27;20107;-77
2021/09/01 09:14:16;;;;;;;0.43;0.40;;;18.80;78.20;;;;;;5136559;27;20019;-78
2021/09/01 09:16:43;;;;;;;0.50;0.43;;;18.90;78.00;;;;;;5136178;27;20019;-78
2021/09/01 09:19:08;;;;;;;0.70;0.70;;;18.90;77.80;;;;;;5136135;27;20035;-76
2021/09/01 09:21:34;;;;;;;0.85;0.43;;;18.90;77.80;;;;;;5136568;27;20039;-77
2021/09/01 09:24:20;;;;;;;1.05;0.52;;;18.90;77.70;;;;;;5136497;27;20030;-77
2021/09/01 09:26:46;;;;;;;0.30;0.30;;;18.80;77.90;;;;;;5136568;27;20051;-77
2021/09/01 09:29:18;;;;;;;0.68;0.40;;;18.90;77.90;;;;;;5135946;27;20100;-78
2021/09/01 09:32:06;;;;;;;1.00;0.57;;;19.00;77.80;;;;;;5136551;27;20019;-78
2021/09/01 09:34:41;;;;;;;0.95;0.50;;;19.10;77.60;;;;;;5135935;27;20039;-78
2021/09/01 09:37:11;;;;;;;0.60;0.50;;;19.10;77.30;;;;;;5136466;27;20098;-77
2021/09/01 09:39:52;;;;;;;0.50;0.50;;;19.00;77.70;;;;;;5135974;27;20031;-78
2021/09/01 09:42:37;;;;;;;0.40;0.40;;;19.00;77.80;;;;;;5136162;27;20019;-78
2021/09/01 09:45:24;;;;;;;0.63;0.40;;;19.10;77.80;;;;;;5135858;27;20019;-78
2021/09/01 09:47:59;;;;;;;0.52;0.43;;;19.20;77.50;;;;;;5136551;27;20043;-77
2021/09/01 09:50:24;;;;;;;0.52;0.43;;;19.30;77.40;;;;;;5136126;27;20026;-77
2021/09/01 09:52:50;;;;;;;1.25;0.70;;;19.30;77.30;;;;;;5136056;27;20023;-77
2021/09/01 09:55:18;;;;;;;1.58;0.40;;;19.30;77.30;;;;;;5135966;27;20482;-78
2021/09/01 09:58:00;;;;;;;0.85;0.47;;;19.30;77.40;;;;;;5135882;27;20047;-78
2021/09/01 10:00:27;;;;;;;0.50;0.50;;;19.30;77.40;;;;;;5135582;27;20441;-78
2021/09/01 10:02:53;;;;;;;0.82;0.50;;;19.30;77.40;;;;;;5135773;27;20378;-78
2021/09/01 10:05:19;;;;;;;1.25;0.77;;;19.40;77.30;;;;;;5135625;27;20027;-78
2021/09/01 10:07:47;;;;;;;1.10;0.32;;;19.40;77.20;;;;;;5117146;27;20016;-78
2021/09/01 10:10:14;;;;;;;0.65;0.50;;;19.50;77.20;;;;;;5135635;27;20034;-78
2021/09/01 10:12:44;;;;;;;0.45;0.45;;;19.50;76.90;;;;;;5134978;27;20016;-77
2021/09/01 10:15:16;;;;;;;0.52;0.52;;;19.40;77.10;;;;;;5135585;27;20054;-79
2021/09/01 10:17:44;;;;;;;0.55;0.55;;;19.40;77.40;;;;;;5135489;27;20604;-78
2021/09/01 10:20:15;;;;;;;0.63;0.43;;;19.40;77.40;;;;;;5135246;27;20043;-77
2021/09/01 10:22:41;;;;;;;0.40;0.40;;;19.50;77.20;;;;;;5135286;27;20023;-78
2021/09/01 10:25:07;;;;;;;0.52;0.52;;;19.50;77.30;;;;;;5135417;27;20029;-77
2021/09/01 10:27:32;;;;;;;1.15;0.60;;;19.60;77.20;;;;;;5134634;27;20047;-78
2021/09/01 10:30:08;;;;;;;0.40;0.40;;;19.60;77.00;;;;;;5135214;27;20026;-78
2021/09/01 10:32:47;;;;;;;0.82;0.57;;;19.60;76.90;;;;;;5135219;27;20475;-77
2021/09/01 10:35:14;;;;;;;0.63;0.52;;;19.60;77.00;;;;;;5135080;27;20497;-76
2021/09/01 10:37:44;;;;;;;0.70;0.60;;;19.50;77.10;;;;;;5135014;27;20039;-77
2021/09/01 10:40:20;;;;;;;0.95;0.60;;;19.40;77.40;;;;;;5116531;27;20042;-77
2021/09/01 10:42:47;;;;;;;0.43;0.40;;;19.40;77.40;;;;;;5134475;27;20027;-76
2021/09/01 10:45:37;;;;;;;0.50;0.50;;;19.40;77.40;;;;;;5134966;27;20027;-76
2021/09/01 10:48:08;;;;;;;1.00;0.40;;;19.40;77.30;;;;;;5122030;27;20532;-77
2021/09/01 10:50:37;;;;;;;0.50;0.50;;;19.40;77.30;;;;;;5134623;27;20058;-75
2021/09/01 10:53:12;;;;;;;;;;;19.50;77.20;;;;;;5135200;27;20030;-76
2021/09/01 10:55:49;;;;;;;0.88;0.50;;;19.30;77.50;;;;;;5134858;27;19903;-76
2021/09/01 10:58:19;;;;;;;0.32;0.32;;;19.30;77.60;;;;;;5134105;27;20027;-76
2021/09/01 11:00:49;;;;;;;;;;;19.30;77.50;;;;;;5134980;27;20046;-76
2021/09/01 11:03:34;;;;;;;0.70;0.70;;;19.30;77.70;;;;;;5134725;27;19989;-76
2021/09/01 11:06:15;;;;;;;0.40;0.40;;;19.40;77.30;;;;;;5134667;27;20026;-77
2021/09/01 11:08:54;;;;;;;0.47;0.30;;;19.50;77.10;;;;;;5134618;27;20015;-77
2021/09/01 11:11:19;;;;;;;0.40;0.40;;;19.60;76.90;;;;;;5134026;27;20090;-76
2021/09/01 11:13:45;;;;;;;1.17;0.57;;;19.60;76.80;;;;;;5134473;27;20471;-75
2021/09/01 11:16:21;;;;;;;0.68;0.52;;;19.70;76.80;;;;;;5116181;27;20034;-76
2021/09/01 11:18:59;;;;;;;0.40;0.40;;;19.80;76.60;;;;;;5115904;27;20050;-76
2021/09/01 11:21:25;;;;;;;0.98;0.98;;;19.90;76.60;;;;;;5134175;27;20031;-77
2021/09/01 11:23:50;;;;;;;0.50;0.50;;;20.00;76.40;;;;;;5134419;27;20020;-77
2021/09/01 11:26:16;;;;;;;1.58;0.57;;;20.10;76.20;;;;;;5133640;27;20027;-77
2021/09/01 11:28:41;;;;;;;0.68;0.43;;;20.10;76.20;;;;;;5134275;27;20023;-76
2021/09/01 11:31:20;;;;;;;0.38;0.38;;;20.20;76.30;;;;;;5134163;28;20028;-75
2021/09/01 11:33:46;;;;;;;1.20;0.60;;;20.30;76.40;;;;;;5133604;27;20020;-76
2021/09/01 11:36:11;;;;;;;0.80;0.52;;;20.40;76.10;;;;;;5134317;28;20027;-76
2021/09/01 11:38:46;;;;;;;1.00;0.40;;;20.50;76.00;;;;;;5134195;28;20471;-76
2021/09/01 11:41:12;;;;;;;0.88;0.70;;;20.50;76.00;;;;;;5133557;28;20384;-75
2021/09/01 11:43:38;;;;;;;0.60;0.60;;;20.60;75.80;;;;;;5134097;28;20489;-77
2021/09/01 11:46:04;;;;;;;0.68;0.68;;;20.60;75.90;;;;;;5134173;28;20038;-74
2021/09/01 11:48:41;;;;;;;0.40;0.40;;;20.50;75.80;;;;;;5115647;28;20031;-74
2021/09/01 11:51:07;;;;;;;0.68;0.60;;;20.30;76.10;;;;;;5134235;28;20019;-77
2021/09/01 11:53:40;;;;;;;0.65;0.57;;;20.00;76.50;;;;;;5133968;28;20023;-82
2021/09/01 11:56:07;;;;;;;1.15;0.88;;;19.90;76.70;;;;;;5114982;28;20030;-76
2021/09/01 11:58:33;;;;;;;1.23;0.82;;;19.90;76.70;;;;;;5134446;28;20058;-82
2021/09/01 12:01:00;;;;;;;1.05;0.70;;;19.80;76.90;;;;;;5134109;28;20476;-79
2021/09/01 12:03:26;;;;;;;1.30;1.17;;;19.70;76.90;;;;;;5133825;28;20016;-79
2021/09/01 12:06:06;;;;;;;0.80;0.80;;;19.60;76.90;;;;;;5115619;28;20016;-79
2021/09/01 12:08:41;;;;;;;0.52;0.52;;;19.50;77.10;;;;;;5115161;28;20466;-79
2021/09/01 12:11:07;;;;;;;0.63;0.45;;;19.60;77.10;;;;;;5115584;28;20062;-79
2021/09/01 12:13:43;;;;;;;0.88;0.60;;;19.60;76.80;;;;;;5134165;28;20055;-80
2021/09/01 12:16:10;;;;;;;0.43;0.43;;;19.60;76.80;;;;;;5134178;28;20027;-80
2021/09/01 12:18:53;;;;;;;2.58;0.98;;;19.60;76.90;;;;;;5115271;28;20043;-80
2021/09/01 12:21:21;;;;;;;0.88;0.40;;;19.70;76.60;;;;;;5133977;28;20149;-79
2021/09/01 12:24:07;;;;;;;0.60;0.60;;;19.60;76.70;;;;;;5115183;28;20528;-79
2021/09/01 12:26:32;;;;;;;0.40;0.40;;;19.60;76.60;;;;;;5133739;28;20035;-80
2021/09/01 12:28:58;;;;;;;0.20;0.20;;;19.70;76.40;;;;;;5133946;28;20018;-80
2021/09/01 12:31:24;;;;;;;2.20;0.63;;;19.80;76.40;;;;;;5133902;28;20098;-80
2021/09/01 12:33:50;;;;;;;1.17;0.55;;;19.80;76.30;;;;;;5134069;28;20107;-79
2021/09/01 12:36:25;;;;;;;0.85;0.85;;;19.90;76.10;;;;;;5115572;28;20122;-80
2021/09/01 12:38:52;;;;;;;0.60;0.55;;;19.90;76.60;;;;;;5133316;28;20030;-80
2021/09/01 12:41:25;;;;;;;0.70;0.70;;;20.00;75.90;;;;;;5133670;28;20406;-79
2021/09/01 12:44:01;;;;;;;0.70;0.52;;;20.20;75.80;;;;;;5133843;27;20058;-79
2021/09/01 12:46:27;;;;;;;0.40;0.40;;;20.30;75.40;;;;;;5136471;27;20030;-79
2021/09/01 12:48:53;;;;;;;0.43;0.30;;;20.40;75.50;;;;;;5137463;27;20106;-78